KVKS

Details ICAO KVKS
Name VICKSBURG MUNI
Region United States
Timezone America/Chicago (UTC-6.0)
Plans Departing 0
Arriving 2
Stats Elevation 106 ft / 32 m (AMSL)
Location 32.239151° -90.928207°
Runways 1
Magnetic Variation 0.465° W
Sunrise 2017-12-11 12:56:19 UTC / 2017-12-11 06:56:19 Local
Sunset 2017-12-11 23:00:45 UTC / 2017-12-11 17:00:45 Local
Advertisement - Login to hide

Runways

ID Width Length Bearing (true) Bearing (mag) Surface Threshold Offset Overrun Length
01 100 ft / 30 m 5,015 ft / 1,528 m 7.48° 7.95° Asphalt 300 ft / 91 m 0 ft / 0 m
19 100 ft / 30 m 5,015 ft / 1,528 m 187.48° 187.95° Asphalt 480 ft / 146 m 0 ft / 0 m

Map

Weather


0- 5 10 15 20 25 30 35+ Temperature / ° C

Clouds and Precipitation
Forecast for 2017-12-12 00:00 UTC. Updated 2 hours ago

Ground ~20,000 ft ~40,000 ft Winds

METAR

KVKS 120035Z AUTO 20004KT 10SM CLR 13/03 A3008 RMK A01

TAF

Not found

Frequencies

Unicom 122.80 MHz CTAF/UNICOM
Warning: Do not use this data for real-world aviation or navigation. No guarantee of current accuracy is given.